createdAt,value
2018-02-19T00:01:35.598Z,1.80
2018-02-19T00:04:01.718Z,1.80
2018-02-19T00:06:27.818Z,1.70
2018-02-19T00:08:53.864Z,1.80
2018-02-19T00:11:19.958Z,1.80
2018-02-19T00:13:47.541Z,1.70
2018-02-19T00:16:13.625Z,1.70
2018-02-19T00:18:40.436Z,1.60
2018-02-19T00:21:06.504Z,1.60
2018-02-19T00:23:32.657Z,1.60
2018-02-19T00:25:58.674Z,1.60
2018-02-19T00:28:24.701Z,1.60
2018-02-19T00:30:50.733Z,1.50
2018-02-19T00:33:17.545Z,1.50
2018-02-19T00:35:43.569Z,1.50
2018-02-19T00:38:09.587Z,1.50
2018-02-19T00:40:36.360Z,1.40
2018-02-19T00:43:02.369Z,1.30
2018-02-19T00:45:28.374Z,1.30
2018-02-19T00:47:55.123Z,1.10
2018-02-19T00:50:21.162Z,1.10
2018-02-19T00:52:47.193Z,1.10
2018-02-19T00:55:14.043Z,1.00
2018-02-19T00:57:40.064Z,1.00
2018-02-19T01:00:06.805Z,1.20
2018-02-19T01:02:32.891Z,1.10
2018-02-19T01:04:59.616Z,1.30
2018-02-19T01:07:25.631Z,1.20
2018-02-19T01:09:51.646Z,1.40
2018-02-19T01:12:17.676Z,1.50
2018-02-19T01:14:43.693Z,1.60
2018-02-19T01:17:10.464Z,1.70
2018-02-19T01:19:36.464Z,1.60
2018-02-19T01:22:03.298Z,1.70
2018-02-19T01:24:30.124Z,1.70
2018-02-19T01:26:56.197Z,1.60
2018-02-19T01:29:22.939Z,1.80
2018-02-19T01:31:48.974Z,1.70
2018-02-19T01:34:15.064Z,1.80
2018-02-19T01:36:41.853Z,1.90
2018-02-19T01:39:07.886Z,1.80
2018-02-19T01:41:33.998Z,1.70
2018-02-19T01:44:00.092Z,1.70
2018-02-19T01:46:26.855Z,1.60
2018-02-19T01:48:52.954Z,1.60
2018-02-19T01:51:18.923Z,1.60
2018-02-19T01:53:45.221Z,1.60
2018-02-19T01:56:11.376Z,1.60
2018-02-19T01:58:37.381Z,1.60
2018-02-19T02:01:03.389Z,1.50
2018-02-19T02:03:29.417Z,1.60
2018-02-19T02:05:55.523Z,1.60
2018-02-19T02:08:21.666Z,1.60
2018-02-19T02:10:48.382Z,1.60
2018-02-19T02:13:15.166Z,1.40
2018-02-19T02:15:41.511Z,1.40
2018-02-19T02:18:07.571Z,1.40
2018-02-19T02:20:34.637Z,1.40
2018-02-19T02:23:00.688Z,1.30
2018-02-19T02:25:26.697Z,1.50
2018-02-19T02:27:52.794Z,1.40
2018-02-19T02:30:18.857Z,1.50
2018-02-19T02:32:44.856Z,1.50
2018-02-19T02:35:10.847Z,1.50
2018-02-19T02:37:36.798Z,1.60
2018-02-19T02:40:02.811Z,1.50
2018-02-19T02:42:28.796Z,1.50
2018-02-19T02:44:54.800Z,1.40
2018-02-19T02:47:20.819Z,1.60
2018-02-19T02:49:46.826Z,1.50
2018-02-19T02:52:12.911Z,1.40
2018-02-19T02:54:39.679Z,1.30
2018-02-19T02:57:05.671Z,1.20
2018-02-19T02:59:31.695Z,1.20
2018-02-19T03:01:57.788Z,1.20
2018-02-19T03:04:23.838Z,1.20
2018-02-19T03:06:49.830Z,1.20
2018-02-19T03:09:15.843Z,1.20
2018-02-19T03:11:41.855Z,1.20
2018-02-19T03:14:07.905Z,1.20
2018-02-19T03:16:33.922Z,1.20
2018-02-19T03:18:59.919Z,1.10
2018-02-19T03:21:25.945Z,1.10
2018-02-19T03:23:51.965Z,1.20
2018-02-19T03:26:17.955Z,1.20
2018-02-19T03:28:44.744Z,1.10
2018-02-19T03:31:10.764Z,1.10
2018-02-19T03:33:37.529Z,1.20
2018-02-19T03:36:03.566Z,1.10
2018-02-19T03:38:29.589Z,1.20
2018-02-19T03:40:55.619Z,1.10
2018-02-19T03:43:21.636Z,1.10
2018-02-19T03:45:47.658Z,1.20
2018-02-19T03:48:13.818Z,1.10
2018-02-19T03:50:39.910Z,1.10
2018-02-19T03:53:05.985Z,1.10
2018-02-19T03:55:32.164Z,1.10
2018-02-19T03:57:58.183Z,1.20
2018-02-19T04:00:24.251Z,1.20
2018-02-19T04:02:50.270Z,1.20
2018-02-19T04:05:16.278Z,1.10
2018-02-19T04:07:43.023Z,1.20
2018-02-19T04:10:09.037Z,1.10
2018-02-19T04:12:35.783Z,1.30
2018-02-19T04:15:01.777Z,1.20
2018-02-19T04:17:28.169Z,1.20
2018-02-19T04:19:54.919Z,1.20
2018-02-19T04:22:20.888Z,1.10
2018-02-19T04:24:47.670Z,1.10
2018-02-19T04:27:14.430Z,1.10
2018-02-19T04:29:40.439Z,1.10
2018-02-19T04:32:06.429Z,1.10
2018-02-19T04:34:32.434Z,1.10
2018-02-19T04:36:59.232Z,1.10
2018-02-19T04:39:25.253Z,1.00
2018-02-19T04:41:51.311Z,1.10
2018-02-19T04:44:18.115Z,1.00
2018-02-19T04:46:44.150Z,1.00
2018-02-19T04:49:10.203Z,1.00
2018-02-19T04:51:36.969Z,0.90
2018-02-19T04:54:03.071Z,0.80
2018-02-19T04:56:29.828Z,0.70
2018-02-19T04:58:55.854Z,0.60
2018-02-19T05:01:21.858Z,0.70
2018-02-19T05:03:47.878Z,0.60
2018-02-19T05:06:14.619Z,0.60
2018-02-19T05:08:41.422Z,0.50
2018-02-19T05:11:07.434Z,0.50
2018-02-19T05:13:33.418Z,0.40
2018-02-19T05:15:59.432Z,0.30
2018-02-19T05:18:25.468Z,0.30
2018-02-19T05:20:51.478Z,0.20
2018-02-19T05:23:18.277Z,0.40
2018-02-19T05:25:44.296Z,0.30
2018-02-19T05:28:10.330Z,0.30
2018-02-19T05:30:36.409Z,0.30
2018-02-19T05:33:02.514Z,0.30
2018-02-19T05:35:29.320Z,0.30
2018-02-19T05:37:55.332Z,0.30
2018-02-19T05:40:21.394Z,0.30
2018-02-19T05:42:48.202Z,0.30
2018-02-19T05:45:14.357Z,0.20
2018-02-19T05:47:40.456Z,0.20
2018-02-19T05:50:06.474Z,0.10
2018-02-19T05:52:32.518Z,0.20
2018-02-19T05:54:58.585Z,0.20
2018-02-19T05:57:24.643Z,0.20
2018-02-19T05:59:50.726Z,0.20
2018-02-19T06:02:16.744Z,0.30
2018-02-19T06:04:42.738Z,0.30
2018-02-19T06:07:08.870Z,0.30
2018-02-19T06:09:34.894Z,0.30
2018-02-19T06:12:00.983Z,0.30
2018-02-19T06:14:27.053Z,0.40
2018-02-19T06:16:54.047Z,0.40
2018-02-19T06:19:20.148Z,0.40
2018-02-19T06:21:46.207Z,0.40
2018-02-19T06:24:12.239Z,0.40
2018-02-19T06:26:38.255Z,0.40
2018-02-19T06:29:04.295Z,0.40
2018-02-19T06:31:30.334Z,0.40
2018-02-19T06:33:56.393Z,0.50
2018-02-19T06:36:22.564Z,0.50
2018-02-19T06:38:48.583Z,0.50
2018-02-19T06:41:14.673Z,0.40
2018-02-19T06:43:40.707Z,0.40
2018-02-19T06:46:06.763Z,0.50
2018-02-19T06:48:32.809Z,0.60
2018-02-19T06:50:58.830Z,0.70
2018-02-19T06:53:24.898Z,0.70
2018-02-19T06:55:50.960Z,0.70
2018-02-19T06:58:16.992Z,0.80
2018-02-19T07:00:43.764Z,1.00
2018-02-19T07:03:09.947Z,0.90
2018-02-19T07:05:35.974Z,1.10
2018-02-19T07:08:02.055Z,1.30
2018-02-19T07:10:28.091Z,1.30
2018-02-19T07:12:54.178Z,1.50
2018-02-19T07:15:20.235Z,1.60
2018-02-19T07:17:46.288Z,1.90
2018-02-19T07:20:12.389Z,2.20
2018-02-19T07:22:38.543Z,2.40
2018-02-19T07:25:04.601Z,2.50
2018-02-19T07:27:30.693Z,2.80
2018-02-19T07:29:56.815Z,2.90
2018-02-19T07:32:22.937Z,2.90
2018-02-19T07:34:49.039Z,3.00
2018-02-19T07:37:15.145Z,2.90
2018-02-19T07:39:41.215Z,3.10
2018-02-19T07:42:08.027Z,3.10
2018-02-19T07:44:34.076Z,3.10
2018-02-19T07:47:00.926Z,2.90
2018-02-19T07:49:27.054Z,2.70
2018-02-19T07:51:53.199Z,2.90
2018-02-19T07:54:19.310Z,2.80
2018-02-19T07:56:45.438Z,3.00
2018-02-19T07:59:11.545Z,2.70
2018-02-19T08:01:37.580Z,3.10
2018-02-19T08:04:04.324Z,3.30
2018-02-19T08:06:30.347Z,3.30
2018-02-19T08:08:56.456Z,3.70
2018-02-19T08:11:22.483Z,4.20
2018-02-19T08:13:48.502Z,4.80
2018-02-19T08:16:14.546Z,5.00
2018-02-19T08:18:41.342Z,5.70
2018-02-19T08:21:07.391Z,5.70
2018-02-19T08:23:33.514Z,5.90
2018-02-19T08:25:59.567Z,5.90
2018-02-19T08:28:25.634Z,6.10
2018-02-19T08:30:51.724Z,6.20
2018-02-19T08:33:17.819Z,6.00
2018-02-19T08:35:43.867Z,6.10
2018-02-19T08:38:09.927Z,6.10
2018-02-19T08:40:35.977Z,6.20
2018-02-19T08:43:02.047Z,6.20
2018-02-19T08:45:28.060Z,6.10
2018-02-19T08:47:54.127Z,6.20
2018-02-19T08:50:20.177Z,6.50
2018-02-19T08:52:46.167Z,6.90
2018-02-19T08:55:12.194Z,7.80
2018-02-19T08:57:38.250Z,8.60
2018-02-19T09:00:04.295Z,8.90
2018-02-19T09:02:31.046Z,9.00
2018-02-19T09:04:57.076Z,8.90
2018-02-19T09:07:23.073Z,9.00
2018-02-19T09:09:49.859Z,10.00
2018-02-19T09:12:15.888Z,10.00
2018-02-19T09:14:41.874Z,10.00
2018-02-19T09:17:08.687Z,10.60
2018-02-19T09:19:35.501Z,11.20
2018-02-19T09:22:01.558Z,11.10
2018-02-19T09:24:28.373Z,11.10
2018-02-19T09:26:54.450Z,11.10
2018-02-19T09:29:20.501Z,11.40
2018-02-19T09:31:46.527Z,11.50
2018-02-19T09:34:12.552Z,11.50
2018-02-19T09:36:38.613Z,11.40
2018-02-19T09:39:04.636Z,11.30
2018-02-19T09:41:30.654Z,11.50
2018-02-19T09:43:56.781Z,11.80
2018-02-19T09:46:22.811Z,12.20
2018-02-19T09:48:49.614Z,14.00
2018-02-19T09:51:16.407Z,14.80
2018-02-19T09:53:43.168Z,15.30
2018-02-19T09:56:09.221Z,15.20
2018-02-19T09:58:35.285Z,15.60
2018-02-19T10:01:02.095Z,14.30
2018-02-19T10:03:28.146Z,14.20
2018-02-19T10:05:54.948Z,13.30
2018-02-19T10:08:20.997Z,13.20
2018-02-19T10:10:47.050Z,13.50
2018-02-19T10:13:13.049Z,13.70
2018-02-19T10:15:39.095Z,14.00
2018-02-19T10:18:05.927Z,14.10
2018-02-19T10:20:32.705Z,14.10
2018-02-19T10:22:58.774Z,14.00
2018-02-19T10:25:24.817Z,14.10
2018-02-19T10:27:51.571Z,13.60
2018-02-19T10:30:17.582Z,13.60
2018-02-19T10:32:44.326Z,14.40
2018-02-19T10:35:11.149Z,14.80
2018-02-19T10:37:37.185Z,14.80
2018-02-19T10:40:03.240Z,14.50
2018-02-19T10:42:29.313Z,14.90
2018-02-19T10:44:55.364Z,15.90
2018-02-19T10:47:22.101Z,16.60
2018-02-19T10:49:48.114Z,16.50
2018-02-19T10:52:14.220Z,16.40
2018-02-19T10:54:40.202Z,16.60
2018-02-19T10:57:06.273Z,16.90
2018-02-19T10:59:32.310Z,16.70
2018-02-19T11:02:00.154Z,17.10
2018-02-19T11:04:26.196Z,17.00
2018-02-19T11:06:52.185Z,17.20
2018-02-19T11:09:18.247Z,16.90
2018-02-19T11:11:45.016Z,16.50
2018-02-19T11:14:11.012Z,16.40
2018-02-19T11:16:37.822Z,14.80
2018-02-19T11:19:03.846Z,14.70
2018-02-19T11:21:29.894Z,14.20
2018-02-19T11:23:56.712Z,13.00
2018-02-19T11:26:22.763Z,12.90
2018-02-19T11:28:49.555Z,13.10
2018-02-19T11:31:16.282Z,12.90
2018-02-19T11:33:42.264Z,12.80
2018-02-19T11:36:08.317Z,13.30
2018-02-19T11:38:34.464Z,13.80
2018-02-19T11:41:01.329Z,12.80
2018-02-19T11:43:27.369Z,12.70
2018-02-19T11:45:53.427Z,12.70
2018-02-19T11:48:19.510Z,12.60
2018-02-19T11:50:45.554Z,12.40
2018-02-19T11:53:12.339Z,11.70
2018-02-19T11:55:38.388Z,11.60
2018-02-19T11:58:04.446Z,11.70
2018-02-19T12:00:31.221Z,11.40
2018-02-19T12:02:57.277Z,11.30
2018-02-19T12:05:23.302Z,11.40
2018-02-19T12:07:49.367Z,11.50
2018-02-19T12:10:15.431Z,11.20
2018-02-19T12:12:41.488Z,11.40
2018-02-19T12:15:08.258Z,12.20
2018-02-19T12:17:42.027Z,12.20
2018-02-19T12:20:08.790Z,12.40
2018-02-19T12:22:34.823Z,12.30
2018-02-19T12:25:00.863Z,12.00
2018-02-19T12:27:26.898Z,11.70
2018-02-19T12:29:52.990Z,11.30
2018-02-19T12:32:19.017Z,11.10
2018-02-19T12:34:45.064Z,10.90
2018-02-19T12:37:11.094Z,10.70
2018-02-19T12:39:37.146Z,10.80
2018-02-19T12:42:03.186Z,11.00
2018-02-19T12:44:30.041Z,9.90
2018-02-19T12:46:56.090Z,9.90
2018-02-19T12:49:22.118Z,9.60
2018-02-19T12:51:48.298Z,9.50
2018-02-19T12:54:15.071Z,9.20
2018-02-19T12:56:41.100Z,9.20
2018-02-19T12:59:07.195Z,9.10
2018-02-19T13:01:33.204Z,8.90
2018-02-19T13:04:00.011Z,8.50
2018-02-19T13:06:26.045Z,8.40
2018-02-19T13:08:52.080Z,8.60
2018-02-19T13:11:18.144Z,8.50
2018-02-19T13:13:44.241Z,8.50
2018-02-19T13:16:10.312Z,8.30
2018-02-19T13:18:36.478Z,8.20
2018-02-19T13:21:02.531Z,8.10
2018-02-19T13:23:29.342Z,8.00
2018-02-19T13:25:55.382Z,8.00
2018-02-19T13:28:22.179Z,7.70
2018-02-19T13:30:48.189Z,7.60
2018-02-19T13:33:14.304Z,7.50
2018-02-19T13:35:40.352Z,7.50
2018-02-19T13:38:06.430Z,7.50
2018-02-19T13:40:33.208Z,7.60
2018-02-19T13:42:59.240Z,7.50
2018-02-19T13:45:25.257Z,7.50
2018-02-19T13:47:51.342Z,7.40
2018-02-19T13:50:17.392Z,7.40
2018-02-19T13:52:43.495Z,7.40
2018-02-19T13:55:09.619Z,7.40
2018-02-19T13:57:36.377Z,7.50
2018-02-19T14:00:02.416Z,7.50
2018-02-19T14:02:29.344Z,7.50
2018-02-19T14:04:55.404Z,7.50
2018-02-19T14:07:22.160Z,7.60
2018-02-19T14:09:48.187Z,7.60
2018-02-19T14:12:14.180Z,7.50
2018-02-19T14:14:40.183Z,7.40
2018-02-19T14:17:06.232Z,7.30
2018-02-19T14:19:32.209Z,7.30
2018-02-19T14:21:59.250Z,7.30
2018-02-19T14:24:25.302Z,7.40
2018-02-19T14:26:52.217Z,7.40
2018-02-19T14:29:19.035Z,7.20
2018-02-19T14:31:45.125Z,7.10
2018-02-19T14:34:12.007Z,6.70
2018-02-19T14:36:38.161Z,6.60
2018-02-19T14:39:04.205Z,6.60
2018-02-19T14:41:30.505Z,6.50
2018-02-19T14:43:56.971Z,6.40
2018-02-19T14:46:23.057Z,6.40
2018-02-19T14:48:49.910Z,6.10
2018-02-19T14:51:16.017Z,6.00
2018-02-19T14:53:42.245Z,6.10
2018-02-19T14:56:08.355Z,6.00
2018-02-19T14:58:34.384Z,6.10
2018-02-19T15:01:00.510Z,5.90
2018-02-19T15:03:26.768Z,6.00
2018-02-19T15:05:59.314Z,6.10
2018-02-19T15:08:25.443Z,5.90
2018-02-19T15:10:51.598Z,5.60
2018-02-19T15:13:17.744Z,5.60
2018-02-19T15:15:43.774Z,5.60
2018-02-19T15:18:09.760Z,5.50
2018-02-19T15:20:36.566Z,5.70
2018-02-19T15:23:02.695Z,5.70
2018-02-19T15:25:29.508Z,5.50
2018-02-19T15:27:55.577Z,5.40
2018-02-19T15:30:22.377Z,5.30
2018-02-19T15:32:48.441Z,5.20
2018-02-19T15:35:15.263Z,5.30
2018-02-19T15:37:41.360Z,5.20
2018-02-19T15:40:07.417Z,5.30
2018-02-19T15:42:33.612Z,5.20
2018-02-19T15:44:59.741Z,5.00
2018-02-19T15:47:25.795Z,5.00
2018-02-19T15:49:51.886Z,5.20
2018-02-19T15:52:17.914Z,5.10
2018-02-19T15:54:44.034Z,5.20
2018-02-19T15:57:10.158Z,5.10
2018-02-19T15:59:36.290Z,5.00
2018-02-19T16:02:02.566Z,4.90
2018-02-19T16:04:29.408Z,4.80
2018-02-19T16:06:55.584Z,4.70
2018-02-19T16:09:21.700Z,4.70
2018-02-19T16:11:47.782Z,4.60
2018-02-19T16:14:14.714Z,4.60
2018-02-19T16:16:40.730Z,4.50
2018-02-19T16:19:06.942Z,4.50
2018-02-19T16:21:33.666Z,4.40
2018-02-19T16:23:59.740Z,4.20
2018-02-19T16:26:25.849Z,4.10
2018-02-19T16:28:52.753Z,3.80
2018-02-19T16:31:18.854Z,3.80
2018-02-19T16:33:44.916Z,3.80
2018-02-19T16:36:12.772Z,3.70
2018-02-19T16:38:38.895Z,3.60
2018-02-19T16:41:05.702Z,3.50
2018-02-19T16:43:31.759Z,3.50
2018-02-19T16:45:57.887Z,3.50
2018-02-19T16:48:24.007Z,3.40
2018-02-19T16:50:50.029Z,3.40
2018-02-19T16:53:16.112Z,3.30
2018-02-19T16:55:43.232Z,3.30
2018-02-19T16:58:09.443Z,3.30
2018-02-19T17:00:35.497Z,3.20
2018-02-19T17:03:02.290Z,3.20
2018-02-19T17:05:29.199Z,3.10
2018-02-19T17:07:55.320Z,3.00
2018-02-19T17:10:22.327Z,3.00
2018-02-19T17:12:48.584Z,2.90
2018-02-19T17:15:14.889Z,3.00
2018-02-19T17:17:41.019Z,2.90
2018-02-19T17:20:09.845Z,2.90
2018-02-19T17:22:36.154Z,2.80
2018-02-19T17:25:02.598Z,2.80
2018-02-19T17:27:29.730Z,2.70
2018-02-19T17:29:55.802Z,2.70
2018-02-19T17:32:23.119Z,2.60
2018-02-19T17:34:52.011Z,2.60
2018-02-19T17:37:20.106Z,2.50
2018-02-19T17:39:47.029Z,2.60
2018-02-19T17:42:13.854Z,2.50
2018-02-19T17:44:39.901Z,2.40
2018-02-19T17:47:05.999Z,2.50
2018-02-19T17:49:32.085Z,2.40
2018-02-19T17:51:58.131Z,2.40
2018-02-19T17:54:24.275Z,2.40
2018-02-19T17:56:50.461Z,2.40
2018-02-19T17:59:16.542Z,2.40
2018-02-19T18:01:42.681Z,2.40
2018-02-19T18:04:09.524Z,2.50
2018-02-19T18:06:35.701Z,2.40
2018-02-19T18:09:02.449Z,2.50
2018-02-19T18:11:28.568Z,2.40
2018-02-19T18:13:54.626Z,2.50
2018-02-19T18:16:21.756Z,2.40
2018-02-19T18:18:47.862Z,2.40
2018-02-19T18:21:13.928Z,2.40
2018-02-19T18:23:40.964Z,2.50
2018-02-19T18:26:07.195Z,2.50
2018-02-19T18:28:34.336Z,2.60
2018-02-19T18:31:01.600Z,2.60
2018-02-19T18:33:27.706Z,2.60
2018-02-19T18:35:53.869Z,2.70
2018-02-19T18:38:20.788Z,2.70
2018-02-19T18:40:47.593Z,2.80
2018-02-19T18:43:13.643Z,2.70
2018-02-19T18:45:39.820Z,2.70
2018-02-19T18:48:05.899Z,2.60
2018-02-19T18:50:31.994Z,2.70
2018-02-19T18:52:58.157Z,2.80
2018-02-19T18:55:25.016Z,2.80
2018-02-19T18:57:51.040Z,2.80
2018-02-19T19:00:17.873Z,2.80
2018-02-19T19:02:44.712Z,2.80
2018-02-19T19:05:11.544Z,2.70
2018-02-19T19:07:44.397Z,2.70
2018-02-19T19:10:16.583Z,2.70
2018-02-19T19:12:42.666Z,2.60
2018-02-19T19:15:08.748Z,2.50
2018-02-19T19:17:35.627Z,2.40
2018-02-19T19:20:01.765Z,2.40
2018-02-19T19:22:27.876Z,2.40
2018-02-19T19:24:54.058Z,2.40
2018-02-19T19:27:20.116Z,2.40
2018-02-19T19:29:46.155Z,2.50
2018-02-19T19:32:12.241Z,2.40
2018-02-19T19:34:38.295Z,2.40
2018-02-19T19:37:04.545Z,2.40
2018-02-19T19:39:31.340Z,2.30
2018-02-19T19:41:58.204Z,2.30
2018-02-19T19:44:25.055Z,2.20
2018-02-19T19:46:51.186Z,2.20
2018-02-19T19:49:17.248Z,2.30
2018-02-19T19:51:43.295Z,2.20
2018-02-19T19:54:10.038Z,2.30
2018-02-19T19:56:36.153Z,2.20
2018-02-19T19:59:02.219Z,2.10
2018-02-19T20:01:29.026Z,1.70
2018-02-19T20:03:55.955Z,1.50
2018-02-19T20:06:22.023Z,1.50
2018-02-19T20:08:48.065Z,1.50
2018-02-19T20:11:14.151Z,1.40
2018-02-19T20:13:40.187Z,1.40
2018-02-19T20:16:06.367Z,1.50
2018-02-19T20:18:32.416Z,1.60
2018-02-19T20:20:58.468Z,1.60
2018-02-19T20:23:25.336Z,1.70
2018-02-19T20:25:51.455Z,1.60
2018-02-19T20:28:18.268Z,1.70
2018-02-19T20:30:44.314Z,1.70
2018-02-19T20:33:10.412Z,1.70
2018-02-19T20:35:37.298Z,1.70
2018-02-19T20:38:03.339Z,1.60
2018-02-19T20:40:29.509Z,1.70
2018-02-19T20:42:55.603Z,1.70
2018-02-19T20:45:22.487Z,1.50
2018-02-19T20:47:48.638Z,1.40
2018-02-19T20:50:14.686Z,1.40
2018-02-19T20:52:41.548Z,1.40
2018-02-19T20:55:07.663Z,1.30
2018-02-19T20:57:33.720Z,1.30
2018-02-19T20:59:59.779Z,1.30
2018-02-19T21:02:25.850Z,1.30
2018-02-19T21:04:52.627Z,1.20
2018-02-19T21:07:20.225Z,1.20
2018-02-19T21:09:46.296Z,1.20
2018-02-19T21:12:12.335Z,1.10
2018-02-19T21:14:38.390Z,1.10
2018-02-19T21:17:04.454Z,1.00
2018-02-19T21:19:31.816Z,1.00
2018-02-19T21:21:58.036Z,1.10
2018-02-19T21:24:24.112Z,1.10
2018-02-19T21:26:50.414Z,1.00
2018-02-19T21:29:18.374Z,1.00
2018-02-19T21:31:44.643Z,0.90
2018-02-19T21:34:13.087Z,0.90
2018-02-19T21:36:39.191Z,0.70
2018-02-19T21:39:07.096Z,0.80
2018-02-19T21:41:33.216Z,0.70
2018-02-19T21:43:59.652Z,0.70
2018-02-19T21:46:25.773Z,0.80
2018-02-19T21:48:52.579Z,1.00
2018-02-19T21:51:18.648Z,0.90
2018-02-19T21:53:45.456Z,0.90
2018-02-19T21:56:12.985Z,0.90
2018-02-19T21:58:39.306Z,0.90
2018-02-19T22:01:06.164Z,0.70
2018-02-19T22:03:32.369Z,0.60
2018-02-19T22:05:58.408Z,0.50
2018-02-19T22:08:25.380Z,0.50
2018-02-19T22:10:51.491Z,0.40
2018-02-19T22:13:17.551Z,0.40
2018-02-19T22:15:44.381Z,0.30
2018-02-19T22:18:10.500Z,0.30
2018-02-19T22:20:36.715Z,0.50
2018-02-19T22:23:03.370Z,0.10
2018-02-19T22:25:30.245Z,0.10
2018-02-19T22:27:56.377Z,0.10
2018-02-19T22:30:22.461Z,0.10
2018-02-19T22:32:48.736Z,0.10
2018-02-19T22:35:15.552Z,0.00
2018-02-19T22:37:41.622Z,-0.10
2018-02-19T22:40:07.722Z,0.00
2018-02-19T22:42:33.783Z,0.00
2018-02-19T22:44:59.841Z,-0.10
2018-02-19T22:47:26.087Z,-0.10
2018-02-19T22:49:52.268Z,-0.10
2018-02-19T22:52:18.357Z,-0.10
2018-02-19T22:54:44.473Z,0.00
2018-02-19T22:57:10.641Z,-0.20
2018-02-19T22:59:36.708Z,-0.10
2018-02-19T23:02:02.798Z,-0.10
2018-02-19T23:04:28.876Z,0.00
2018-02-19T23:06:54.925Z,0.00
2018-02-19T23:09:20.979Z,0.00
2018-02-19T23:11:47.800Z,-0.20
2018-02-19T23:14:13.842Z,-0.20
2018-02-19T23:16:39.915Z,-0.20
2018-02-19T23:19:05.955Z,-0.20
2018-02-19T23:21:32.025Z,-0.10
2018-02-19T23:23:58.815Z,-0.10
2018-02-19T23:26:24.848Z,-0.20
2018-02-19T23:28:50.920Z,-0.10
2018-02-19T23:31:17.100Z,-0.10
2018-02-19T23:33:43.176Z,-0.10
2018-02-19T23:36:09.947Z,0.00
2018-02-19T23:38:36.074Z,-0.10
2018-02-19T23:41:02.117Z,-0.10
2018-02-19T23:43:28.169Z,0.00
2018-02-19T23:45:55.087Z,-0.10
2018-02-19T23:48:21.835Z,-0.10
2018-02-19T23:50:47.842Z,-0.20
2018-02-19T23:53:13.896Z,-0.10
2018-02-19T23:55:40.725Z,0.00
2018-02-19T23:58:06.732Z,-0.10
